Fragancia — LMWE — position and weather

sailwx.info

Track history (hours):
 
Tides and Currents Weather Stations Pressure Air Temp Water Temp Dewpoint Dewpoint Depression Visibility Wind Speed Wind Dir Waves Ship Positions

Fragancia

Last reported at 2017-Oct-05 15:04 UTC. Time now 2017-Oct-17 01:10 UTC.
Position N 27°49' W 015°10'.
Warning: this ship's position is 11 days out of date.

Length 16 m.

Type: Sailing vessel. MMSI: 257024710.

Date/timePositionNaut miles runAvg speedWind from/ knotsBaromVisibWave heightAir tempDewpointWater temp
2017-Oct-05 15:04N 27°49' W 015°10'1 7.2
2017-Oct-05 14:56N 27°50' W 015°10'4 7.3
2017-Oct-05 14:23N 27°51' W 015°05'4 7.3
2017-Oct-05 13:54N 27°52' W 015°01'3 7.2
2017-Oct-05 13:30N 27°53' W 014°58'3 6.1
2017-Oct-05 13:00N 27°54' W 014°55'5 7.2
2017-Oct-05 12:22N 27°55' W 014°50'2 7.0
2017-Oct-05 12:00N 27°56' W 014°47'85 3.1
2017-Oct-04 08:55N 28°55' W 013°38'3 6.7
2017-Oct-04 08:30N 28°56' W 013°35'3 6.2
2017-Oct-04 07:59N 28°58' W 013°32'0 0.5
2017-Oct-04 07:25N 28°58' W 013°32'0 0.0
2017-Oct-04 06:49N 28°58' W 013°32'0 0.0
2017-Oct-04 06:25N 28°58' W 013°32'0 0.0
2017-Oct-04 05:49N 28°58' W 013°32'0 0.0
2017-Oct-04 05:19N 28°58' W 013°32'0 0.0
2017-Oct-04 04:55N 28°58' W 013°32'0 0.0
2017-Oct-04 04:25N 28°58' W 013°32'0 0.0
2017-Oct-04 03:55N 28°58' W 013°32'0 0.0
2017-Oct-04 03:25N 28°58' W 013°32'0 0.0
2017-Oct-04 02:43N 28°58' W 013°32'0 0.0
2017-Oct-04 02:28N 28°58' W 013°32'0 0.0
2017-Oct-04 01:55N 28°58' W 013°32'0 0.0
2017-Oct-04 01:19N 28°58' W 013°32'0 0.0
2017-Oct-04 00:55N 28°58' W 013°32'0 0.0
2017-Oct-04 00:19N 28°58' W 013°32'0 0.0
2017-Oct-03 23:55N 28°58' W 013°32'0 0.0
2017-Oct-03 23:25N 28°58' W 013°32'0 0.0
2017-Oct-03 22:55N 28°58' W 013°32'0 0.0
2017-Oct-03 22:25N 28°58' W 013°32'0 0.0
2017-Oct-03 21:55N 28°58' W 013°32'0 0.0
2017-Oct-03 21:25N 28°58' W 013°32'0 0.0
2017-Oct-03 20:55N 28°58' W 013°32'0 0.0
2017-Oct-03 20:25N 28°58' W 013°32'0 0.0
2017-Oct-03 19:55N 28°58' W 013°32'0 0.0
2017-Oct-03 19:25N 28°58' W 013°32'0 0.2
2017-Oct-03 19:00N 28°58' W 013°32'2 4.0
2017-Oct-03 18:30N 28°58' W 013°30'4 7.6
2017-Oct-03 18:00N 29°01' W 013°27'  
2017-Sep-30 00:36N 37°07' W 008°32'0 0.0
2017-Sep-30 00:18N 37°07' W 008°32'0 0.0
2017-Sep-29 23:30N 37°07' W 008°32'0 0.0
2017-Sep-29 22:36N 37°07' W 008°32'0 0.0
2017-Sep-29 22:30N 37°07' W 008°32'0 0.0
2017-Sep-29 21:53N 37°07' W 008°32'0 0.0
2017-Sep-29 20:41N 37°07' W 008°32'0 0.0
2017-Sep-29 20:29N 37°07' W 008°32'0 0.0
2017-Sep-29 17:29N 37°07' W 008°32'0 0.0
2017-Sep-29 16:56N 37°07' W 008°32'0 0.0
2017-Sep-29 16:28N 37°07' W 008°32'0 0.0
2017-Sep-29 16:00N 37°07' W 008°32'0 0.0
2017-Sep-29 14:54N 37°07' W 008°32'0 0.0
2017-Sep-29 13:51N 37°07' W 008°32'0 0.0
2017-Sep-29 13:27N 37°07' W 008°32'0 0.0
2017-Sep-29 12:57N 37°07' W 008°32'0 0.0
2017-Sep-29 12:27N 37°07' W 008°32'0 0.0
2017-Sep-29 11:33N 37°07' W 008°32'0 0.0
2017-Sep-29 11:03N 37°07' W 008°32'0 0.0
2017-Sep-29 10:57N 37°07' W 008°32'0 0.0
2017-Sep-29 10:21N 37°07' W 008°32'0 0.0
2017-Sep-29 09:51N 37°07' W 008°32'0 0.0
2017-Sep-29 09:27N 37°07' W 008°32'0 0.0
2017-Sep-29 08:57N 37°07' W 008°32'0 0.0
2017-Sep-29 08:09N 37°07' W 008°32'0 0.0
2017-Sep-29 06:33N 37°07' W 008°32'0 0.0
2017-Sep-28 20:11N 37°07' W 008°32'0 0.0
2017-Sep-28 19:47N 37°07' W 008°32'0 0.0
2017-Sep-28 19:17N 37°07' W 008°32'0 0.0
2017-Sep-28 18:59N 37°07' W 008°32'0 0.0
2017-Sep-28 18:29N 37°07' W 008°32'0 0.0
2017-Sep-28 17:53N 37°07' W 008°32'0 0.0
2017-Sep-28 17:29N 37°07' W 008°32'0 0.0
2017-Sep-28 16:59N 37°07' W 008°32'0 0.0
2017-Sep-28 16:23N 37°07' W 008°32'0 0.0
2017-Sep-28 15:59N 37°07' W 008°32'0 0.0
2017-Sep-28 15:29N 37°07' W 008°32'0 0.0
2017-Sep-28 14:59N 37°07' W 008°32'0 0.0
2017-Sep-28 13:53N 37°07' W 008°32'0 0.0
2017-Sep-28 13:11N 37°07' W 008°32'0 0.0
2017-Sep-28 12:53N 37°07' W 008°32'0 0.0
2017-Sep-28 11:41N 37°07' W 008°32'0 0.0
2017-Sep-28 10:47N 37°07' W 008°32'0 0.0
2017-Sep-28 10:17N 37°07' W 008°32'0 0.0
2017-Sep-28 09:59N 37°07' W 008°32'0 0.0
2017-Sep-28 08:35N 37°07' W 008°32'0 0.0
2017-Sep-28 08:29N 37°07' W 008°32'0 0.0
2017-Sep-28 01:29N 37°07' W 008°32'0 0.0
2017-Sep-28 00:55N 37°07' W 008°32'0 0.0
2017-Sep-28 00:18N 37°07' W 008°32'0 0.0
2017-Sep-28 00:00N 37°07' W 008°32'0 0.0
2017-Sep-27 23:12N 37°07' W 008°32'0 0.0
2017-Sep-27 23:00N 37°07' W 008°32'0 0.0
2017-Sep-27 22:30N 37°07' W 008°32'0 0.0
2017-Sep-27 21:54N 37°07' W 008°32'0 0.0
2017-Sep-27 21:30N 37°07' W 008°32'0 0.0
2017-Sep-27 21:00N 37°07' W 008°32'0 0.0
2017-Sep-27 19:42N 37°07' W 008°32'0 0.0
2017-Sep-27 19:24N 37°07' W 008°32'0 0.0
2017-Sep-27 18:54N 37°07' W 008°32'0 0.0
2017-Sep-27 18:30N 37°07' W 008°32'0 0.0
2017-Sep-27 17:18N 37°07' W 008°32'0 0.0
2017-Sep-27 17:00N 37°07' W 008°32'0 0.0
2017-Sep-27 14:48N 37°07' W 008°32'0 0.0
2017-Sep-27 14:24N 37°07' W 008°32'0 0.0
2017-Sep-27 13:54N 37°07' W 008°32'0 0.0
2017-Sep-27 09:57N 37°07' W 008°32'0 0.0
2017-Sep-27 09:27N 37°07' W 008°32'0 0.0
2017-Sep-27 08:57N 37°07' W 008°32'0 0.0
2017-Sep-27 08:27N 37°07' W 008°32'0 0.0
2017-Sep-27 07:57N 37°07' W 008°32'0 0.0
2017-Sep-27 07:27N 37°07' W 008°32'0 0.0
2017-Sep-27 06:21N 37°07' W 008°32'0 0.0
2017-Sep-27 05:51N 37°07' W 008°32'0 0.0
2017-Sep-27 05:21N 37°07' W 008°32'0 0.0
2017-Sep-27 04:57N 37°07' W 008°32'0 0.0
2017-Sep-27 04:27N 37°07' W 008°32'0 0.0
2017-Sep-27 03:57N 37°07' W 008°32'0 0.0
2017-Sep-27 03:21N 37°07' W 008°32'0 0.0
2017-Sep-27 02:51N 37°07' W 008°32'0 0.0
2017-Sep-27 01:38N 37°07' W 008°32'0 0.0
2017-Sep-27 01:26N 37°07' W 008°32'0 0.0
2017-Sep-27 00:56N 37°07' W 008°32'0 0.0
2017-Sep-27 00:26N 37°07' W 008°32'0 0.0
2017-Sep-26 23:56N 37°07' W 008°32'0 0.0
2017-Sep-26 23:14N 37°07' W 008°32'0 0.0
2017-Sep-26 22:56N 37°07' W 008°32'0 0.0
2017-Sep-26 22:26N 37°07' W 008°32'0 0.0
2017-Sep-26 21:32N 37°07' W 008°32'0 0.0
2017-Sep-26 21:26N 37°07' W 008°32'0 0.0
2017-Sep-26 20:56N 37°07' W 008°32'0 0.0
2017-Sep-26 20:14N 37°07' W 008°32'0 0.0
2017-Sep-26 18:53N 37°07' W 008°32'0 0.0
2017-Sep-26 18:26N 37°07' W 008°32'0 0.0
2017-Sep-26 17:56N 37°07' W 008°32'0 0.0
2017-Sep-26 16:14N 37°07' W 008°32'0 0.0
2017-Sep-26 15:50N 37°07' W 008°32'0 0.0
2017-Sep-26 15:29N 37°07' W 008°32'0 0.0
2017-Sep-26 14:56N 37°07' W 008°32'0 0.0
2017-Sep-26 14:26N 37°07' W 008°32'0 0.0
2017-Sep-26 13:56N 37°07' W 008°32'0 0.0
2017-Sep-26 13:26N 37°07' W 008°32'0 0.0
2017-Sep-26 12:56N 37°07' W 008°32'0 0.0
2017-Sep-26 12:29N 37°07' W 008°32'0 0.0
2017-Sep-26 11:56N 37°07' W 008°32'0 0.0
2017-Sep-26 11:26N 37°07' W 008°32'0 0.0
2017-Sep-26 10:44N 37°07' W 008°32'0 0.0
2017-Sep-26 10:26N 37°07' W 008°32'0 0.0
2017-Sep-26 08:32N 37°07' W 008°32'0 0.0
2017-Sep-26 08:20N 37°07' W 008°32'0 0.0
2017-Sep-26 07:56N 37°07' W 008°32'0 0.0
2017-Sep-26 07:14N 37°07' W 008°32'0 0.0
2017-Sep-26 06:56N 37°07' W 008°32'0 0.0
2017-Sep-26 06:26N 37°07' W 008°32'0 0.0
2017-Sep-26 05:56N 37°07' W 008°32'0 0.0
2017-Sep-26 05:14N 37°07' W 008°32'0 0.0
2017-Sep-26 04:56N 37°07' W 008°32'0 0.0
2017-Sep-26 04:26N 37°07' W 008°32'0 0.0
2017-Sep-25 17:14N 37°07' W 008°32'0 0.0
2017-Sep-25 16:50N 37°07' W 008°32'0 0.0
2017-Sep-25 16:08N 37°07' W 008°32'0 0.0
2017-Sep-25 15:50N 37°07' W 008°32'0 0.0
2017-Sep-25 15:20N 37°07' W 008°32'  
Track history (hours):
 
Tides and Currents Weather Stations Pressure Air Temp Water Temp Dewpoint Dewpoint Depression Visibility Wind Speed Wind Dir Waves Ship Positions

Fragancia

Last reported at 2017-Oct-05 15:04 UTC. Time now 2017-Oct-17 01:10 UTC.
Position N 27°49' W 015°10'.
Warning: this ship's position is 11 days out of date.

Length 16 m.

Type: Sailing vessel. MMSI: 257024710.

Date/timePositionNaut miles runAvg speedWind from/ knotsBaromVisibWave heightAir tempDewpointWater temp
2017-Oct-05 15:04N 27°49' W 015°10'1 7.2
2017-Oct-05 14:56N 27°50' W 015°10'4 7.3
2017-Oct-05 14:23N 27°51' W 015°05'4 7.3
2017-Oct-05 13:54N 27°52' W 015°01'3 7.2
2017-Oct-05 13:30N 27°53' W 014°58'3 6.1
2017-Oct-05 13:00N 27°54' W 014°55'5 7.2
2017-Oct-05 12:22N 27°55' W 014°50'2 7.0
2017-Oct-05 12:00N 27°56' W 014°47'85 3.1
2017-Oct-04 08:55N 28°55' W 013°38'3 6.7
2017-Oct-04 08:30N 28°56' W 013°35'3 6.2
2017-Oct-04 07:59N 28°58' W 013°32'0 0.5
2017-Oct-04 07:25N 28°58' W 013°32'0 0.0
2017-Oct-04 06:49N 28°58' W 013°32'0 0.0
2017-Oct-04 06:25N 28°58' W 013°32'0 0.0
2017-Oct-04 05:49N 28°58' W 013°32'0 0.0
2017-Oct-04 05:19N 28°58' W 013°32'0 0.0
2017-Oct-04 04:55N 28°58' W 013°32'0 0.0
2017-Oct-04 04:25N 28°58' W 013°32'0 0.0
2017-Oct-04 03:55N 28°58' W 013°32'0 0.0
2017-Oct-04 03:25N 28°58' W 013°32'0 0.0
2017-Oct-04 02:43N 28°58' W 013°32'0 0.0
2017-Oct-04 02:28N 28°58' W 013°32'0 0.0
2017-Oct-04 01:55N 28°58' W 013°32'0 0.0
2017-Oct-04 01:19N 28°58' W 013°32'0 0.0
2017-Oct-04 00:55N 28°58' W 013°32'0 0.0
2017-Oct-04 00:19N 28°58' W 013°32'0 0.0
2017-Oct-03 23:55N 28°58' W 013°32'0 0.0
2017-Oct-03 23:25N 28°58' W 013°32'0 0.0
2017-Oct-03 22:55N 28°58' W 013°32'0 0.0
2017-Oct-03 22:25N 28°58' W 013°32'0 0.0
2017-Oct-03 21:55N 28°58' W 013°32'0 0.0
2017-Oct-03 21:25N 28°58' W 013°32'0 0.0
2017-Oct-03 20:55N 28°58' W 013°32'0 0.0
2017-Oct-03 20:25N 28°58' W 013°32'0 0.0
2017-Oct-03 19:55N 28°58' W 013°32'0 0.0
2017-Oct-03 19:25N 28°58' W 013°32'0 0.2
2017-Oct-03 19:00N 28°58' W 013°32'2 4.0
2017-Oct-03 18:30N 28°58' W 013°30'4 7.6
2017-Oct-03 18:00N 29°01' W 013°27'  
2017-Sep-30 00:36N 37°07' W 008°32'0 0.0
2017-Sep-30 00:18N 37°07' W 008°32'0 0.0
2017-Sep-29 23:30N 37°07' W 008°32'0 0.0
2017-Sep-29 22:36N 37°07' W 008°32'0 0.0
2017-Sep-29 22:30N 37°07' W 008°32'0 0.0
2017-Sep-29 21:53N 37°07' W 008°32'0 0.0
2017-Sep-29 20:41N 37°07' W 008°32'0 0.0
2017-Sep-29 20:29N 37°07' W 008°32'0 0.0
2017-Sep-29 17:29N 37°07' W 008°32'0 0.0
2017-Sep-29 16:56N 37°07' W 008°32'0 0.0
2017-Sep-29 16:28N 37°07' W 008°32'0 0.0
2017-Sep-29 16:00N 37°07' W 008°32'0 0.0
2017-Sep-29 14:54N 37°07' W 008°32'0 0.0
2017-Sep-29 13:51N 37°07' W 008°32'0 0.0
2017-Sep-29 13:27N 37°07' W 008°32'0 0.0
2017-Sep-29 12:57N 37°07' W 008°32'0 0.0
2017-Sep-29 12:27N 37°07' W 008°32'0 0.0
2017-Sep-29 11:33N 37°07' W 008°32'0 0.0
2017-Sep-29 11:03N 37°07' W 008°32'0 0.0
2017-Sep-29 10:57N 37°07' W 008°32'0 0.0
2017-Sep-29 10:21N 37°07' W 008°32'0 0.0
2017-Sep-29 09:51N 37°07' W 008°32'0 0.0
2017-Sep-29 09:27N 37°07' W 008°32'0 0.0
2017-Sep-29 08:57N 37°07' W 008°32'0 0.0
2017-Sep-29 08:09N 37°07' W 008°32'0 0.0
2017-Sep-29 06:33N 37°07' W 008°32'0 0.0
2017-Sep-28 20:11N 37°07' W 008°32'0 0.0
2017-Sep-28 19:47N 37°07' W 008°32'0 0.0
2017-Sep-28 19:17N 37°07' W 008°32'0 0.0
2017-Sep-28 18:59N 37°07' W 008°32'0 0.0
2017-Sep-28 18:29N 37°07' W 008°32'0 0.0
2017-Sep-28 17:53N 37°07' W 008°32'0 0.0
2017-Sep-28 17:29N 37°07' W 008°32'0 0.0
2017-Sep-28 16:59N 37°07' W 008°32'0 0.0
2017-Sep-28 16:23N 37°07' W 008°32'0 0.0
2017-Sep-28 15:59N 37°07' W 008°32'0 0.0
2017-Sep-28 15:29N 37°07' W 008°32'0 0.0
2017-Sep-28 14:59N 37°07' W 008°32'0 0.0
2017-Sep-28 13:53N 37°07' W 008°32'0 0.0
2017-Sep-28 13:11N 37°07' W 008°32'0 0.0
2017-Sep-28 12:53N 37°07' W 008°32'0 0.0
2017-Sep-28 11:41N 37°07' W 008°32'0 0.0
2017-Sep-28 10:47N 37°07' W 008°32'0 0.0
2017-Sep-28 10:17N 37°07' W 008°32'0 0.0
2017-Sep-28 09:59N 37°07' W 008°32'0 0.0
2017-Sep-28 08:35N 37°07' W 008°32'0 0.0
2017-Sep-28 08:29N 37°07' W 008°32'0 0.0
2017-Sep-28 01:29N 37°07' W 008°32'0 0.0
2017-Sep-28 00:55N 37°07' W 008°32'0 0.0
2017-Sep-28 00:18N 37°07' W 008°32'0 0.0
2017-Sep-28 00:00N 37°07' W 008°32'0 0.0
2017-Sep-27 23:12N 37°07' W 008°32'0 0.0
2017-Sep-27 23:00N 37°07' W 008°32'0 0.0
2017-Sep-27 22:30N 37°07' W 008°32'0 0.0
2017-Sep-27 21:54N 37°07' W 008°32'0 0.0
2017-Sep-27 21:30N 37°07' W 008°32'0 0.0
2017-Sep-27 21:00N 37°07' W 008°32'0 0.0
2017-Sep-27 19:42N 37°07' W 008°32'0 0.0
2017-Sep-27 19:24N 37°07' W 008°32'0 0.0
2017-Sep-27 18:54N 37°07' W 008°32'0 0.0
2017-Sep-27 18:30N 37°07' W 008°32'0 0.0
2017-Sep-27 17:18N 37°07' W 008°32'0 0.0
2017-Sep-27 17:00N 37°07' W 008°32'0 0.0
2017-Sep-27 14:48N 37°07' W 008°32'0 0.0
2017-Sep-27 14:24N 37°07' W 008°32'0 0.0
2017-Sep-27 13:54N 37°07' W 008°32'0 0.0
2017-Sep-27 09:57N 37°07' W 008°32'0 0.0
2017-Sep-27 09:27N 37°07' W 008°32'0 0.0
2017-Sep-27 08:57N 37°07' W 008°32'0 0.0
2017-Sep-27 08:27N 37°07' W 008°32'0 0.0
2017-Sep-27 07:57N 37°07' W 008°32'0 0.0
2017-Sep-27 07:27N 37°07' W 008°32'0 0.0
2017-Sep-27 06:21N 37°07' W 008°32'0 0.0
2017-Sep-27 05:51N 37°07' W 008°32'0 0.0
2017-Sep-27 05:21N 37°07' W 008°32'0 0.0
2017-Sep-27 04:57N 37°07' W 008°32'0 0.0
2017-Sep-27 04:27N 37°07' W 008°32'0 0.0
2017-Sep-27 03:57N 37°07' W 008°32'0 0.0
2017-Sep-27 03:21N 37°07' W 008°32'0 0.0
2017-Sep-27 02:51N 37°07' W 008°32'0 0.0
2017-Sep-27 01:38N 37°07' W 008°32'0 0.0
2017-Sep-27 01:26N 37°07' W 008°32'0 0.0
2017-Sep-27 00:56N 37°07' W 008°32'0 0.0
2017-Sep-27 00:26N 37°07' W 008°32'0 0.0
2017-Sep-26 23:56N 37°07' W 008°32'0 0.0
2017-Sep-26 23:14N 37°07' W 008°32'0 0.0
2017-Sep-26 22:56N 37°07' W 008°32'0 0.0
2017-Sep-26 22:26N 37°07' W 008°32'0 0.0
2017-Sep-26 21:32N 37°07' W 008°32'0 0.0
2017-Sep-26 21:26N 37°07' W 008°32'0 0.0
2017-Sep-26 20:56N 37°07' W 008°32'0 0.0
2017-Sep-26 20:14N 37°07' W 008°32'0 0.0
2017-Sep-26 18:53N 37°07' W 008°32'0 0.0
2017-Sep-26 18:26N 37°07' W 008°32'0 0.0
2017-Sep-26 17:56N 37°07' W 008°32'0 0.0
2017-Sep-26 16:14N 37°07' W 008°32'0 0.0
2017-Sep-26 15:50N 37°07' W 008°32'0 0.0
2017-Sep-26 15:29N 37°07' W 008°32'0 0.0
2017-Sep-26 14:56N 37°07' W 008°32'0 0.0
2017-Sep-26 14:26N 37°07' W 008°32'0 0.0
2017-Sep-26 13:56N 37°07' W 008°32'0 0.0
2017-Sep-26 13:26N 37°07' W 008°32'0 0.0
2017-Sep-26 12:56N 37°07' W 008°32'0 0.0
2017-Sep-26 12:29N 37°07' W 008°32'0 0.0
2017-Sep-26 11:56N 37°07' W 008°32'0 0.0
2017-Sep-26 11:26N 37°07' W 008°32'0 0.0
2017-Sep-26 10:44N 37°07' W 008°32'0 0.0
2017-Sep-26 10:26N 37°07' W 008°32'0 0.0
2017-Sep-26 08:32N 37°07' W 008°32'0 0.0
2017-Sep-26 08:20N 37°07' W 008°32'0 0.0
2017-Sep-26 07:56N 37°07' W 008°32'0 0.0
2017-Sep-26 07:14N 37°07' W 008°32'0 0.0
2017-Sep-26 06:56N 37°07' W 008°32'0 0.0
2017-Sep-26 06:26N 37°07' W 008°32'0 0.0
2017-Sep-26 05:56N 37°07' W 008°32'0 0.0
2017-Sep-26 05:14N 37°07' W 008°32'0 0.0
2017-Sep-26 04:56N 37°07' W 008°32'0 0.0
2017-Sep-26 04:26N 37°07' W 008°32'0 0.0
2017-Sep-25 17:14N 37°07' W 008°32'0 0.0
2017-Sep-25 16:50N 37°07' W 008°32'0 0.0
2017-Sep-25 16:08N 37°07' W 008°32'0 0.0
2017-Sep-25 15:50N 37°07' W 008°32'0 0.0
2017-Sep-25 15:20N 37°07' W 008°32'  

Dump ship's entire track history